createdAt,value
2018-09-30T00:00:20.038Z,83.35
2018-09-30T00:00:58.149Z,82.97
2018-09-30T00:01:36.149Z,82.84
2018-09-30T00:02:14.096Z,83.97
2018-09-30T00:02:53.618Z,83.66
2018-09-30T00:03:33.940Z,83.16
2018-09-30T00:04:13.305Z,83.81
2018-09-30T00:04:51.434Z,82.71
2018-09-30T00:05:30.122Z,82.70
2018-09-30T00:06:08.328Z,83.26
2018-09-30T00:06:47.221Z,83.95
2018-09-30T00:07:26.618Z,83.25
2018-09-30T00:08:04.827Z,83.10
2018-09-30T00:08:45.042Z,83.70
2018-09-30T00:09:26.762Z,84.19
2018-09-30T00:10:06.741Z,84.07
2018-09-30T00:10:46.776Z,83.19
2018-09-30T00:11:25.615Z,84.05
2018-09-30T00:12:06.026Z,84.07
2018-09-30T00:12:53.530Z,83.74
2018-09-30T00:13:36.598Z,83.97
2018-09-30T00:14:22.644Z,83.89
2018-09-30T00:15:09.656Z,83.68
2018-09-30T00:15:47.642Z,83.50
2018-09-30T00:16:25.545Z,83.03
2018-09-30T00:17:04.549Z,82.97
2018-09-30T00:17:52.568Z,82.68
2018-09-30T00:18:37.226Z,83.42
2018-09-30T00:19:15.507Z,83.94
2018-09-30T00:19:53.949Z,82.18
2018-09-30T00:20:32.075Z,82.21
2018-09-30T00:21:10.370Z,83.01
2018-09-30T00:21:48.580Z,83.27
2018-09-30T00:22:27.279Z,81.87
2018-09-30T00:23:05.450Z,81.98
2018-09-30T00:23:47.515Z,82.03
2018-09-30T00:24:29.488Z,82.17
2018-09-30T00:25:13.410Z,81.81
2018-09-30T00:25:58.538Z,82.49
2018-09-30T00:26:40.641Z,81.54
2018-09-30T00:27:20.594Z,81.42
2018-09-30T00:27:59.063Z,81.38
2018-09-30T00:28:37.749Z,81.66
2018-09-30T00:29:15.783Z,81.30
2018-09-30T00:29:53.822Z,81.00
2018-09-30T00:30:32.057Z,80.65
2018-09-30T00:31:10.235Z,82.01
2018-09-30T00:31:48.474Z,82.17
2018-09-30T00:32:27.435Z,81.85
2018-09-30T00:33:05.644Z,81.72
2018-09-30T00:33:48.674Z,80.81
2018-09-30T00:34:32.351Z,82.08
2018-09-30T00:35:12.721Z,82.00
2018-09-30T00:36:03.195Z,82.05
2018-09-30T00:36:45.584Z,81.07
2018-09-30T00:37:24.631Z,81.91
2018-09-30T00:38:02.582Z,82.18
2018-09-30T00:38:40.584Z,80.98
2018-09-30T00:39:18.792Z,81.68
2018-09-30T00:39:57.163Z,81.84
2018-09-30T00:40:35.336Z,82.19
2018-09-30T00:41:13.397Z,81.21
2018-09-30T00:41:51.506Z,82.57
2018-09-30T00:42:29.407Z,81.08
2018-09-30T00:43:07.544Z,81.32
2018-09-30T00:43:45.526Z,80.72
2018-09-30T00:44:23.608Z,80.57
2018-09-30T00:45:01.415Z,81.54
2018-09-30T00:45:39.469Z,80.39
2018-09-30T00:46:17.618Z,81.07
2018-09-30T00:46:56.213Z,80.98
2018-09-30T00:47:34.761Z,81.11
2018-09-30T00:48:13.070Z,81.71
2018-09-30T00:48:59.848Z,80.59
2018-09-30T00:49:50.480Z,81.77
2018-09-30T00:50:28.690Z,80.45
2018-09-30T00:51:12.674Z,81.27
2018-09-30T00:51:51.010Z,81.40
2018-09-30T00:52:29.808Z,81.73
2018-09-30T00:53:07.844Z,80.19
2018-09-30T00:53:49.853Z,81.80
2018-09-30T00:54:36.365Z,81.27
2018-09-30T00:55:15.103Z,81.60
2018-09-30T00:55:53.120Z,81.16
2018-09-30T00:56:31.095Z,81.46
2018-09-30T00:57:09.063Z,80.85
2018-09-30T00:57:47.328Z,80.32
2018-09-30T00:58:25.402Z,81.03
2018-09-30T00:59:03.322Z,81.60
2018-09-30T00:59:42.077Z,80.91
2018-09-30T01:00:21.784Z,81.00
2018-09-30T01:00:59.877Z,80.61
2018-09-30T01:01:38.085Z,80.55
2018-09-30T01:02:17.019Z,79.83
2018-09-30T01:02:55.095Z,79.98
2018-09-30T01:03:33.195Z,80.62
2018-09-30T01:04:11.400Z,80.88
2018-09-30T01:04:49.265Z,80.87
2018-09-30T01:05:27.397Z,79.67
2018-09-30T01:06:05.304Z,79.18
2018-09-30T01:06:43.226Z,80.13
2018-09-30T01:07:21.140Z,80.09
2018-09-30T01:07:59.042Z,79.77
2018-09-30T01:08:36.908Z,78.71
2018-09-30T01:09:17.399Z,80.17
2018-09-30T01:09:55.533Z,79.30
2018-09-30T01:10:33.403Z,78.73
2018-09-30T01:11:11.854Z,78.98
2018-09-30T01:11:49.880Z,78.56
2018-09-30T01:12:27.725Z,79.31
2018-09-30T01:13:05.593Z,78.40
2018-09-30T01:13:43.373Z,78.78
2018-09-30T01:14:21.231Z,77.94
2018-09-30T01:14:59.178Z,77.45
2018-09-30T01:15:38.227Z,76.97
2018-09-30T01:16:16.768Z,77.27
2018-09-30T01:16:55.683Z,77.46
2018-09-30T01:17:33.520Z,78.88
2018-09-30T01:18:12.326Z,77.83
2018-09-30T01:18:50.212Z,78.75
2018-09-30T01:19:28.300Z,77.82
2018-09-30T01:20:06.847Z,78.53
2018-09-30T01:20:44.774Z,78.03
2018-09-30T01:21:22.673Z,77.76
2018-09-30T01:22:00.815Z,77.32
2018-09-30T01:22:39.257Z,76.76
2018-09-30T01:23:17.531Z,76.46
2018-09-30T01:23:55.729Z,76.25
2018-09-30T01:24:34.021Z,76.12
2018-09-30T01:25:12.257Z,76.10
2018-09-30T01:25:51.508Z,76.57
2018-09-30T01:26:29.825Z,75.96
2018-09-30T01:27:07.947Z,75.83
2018-09-30T01:27:46.000Z,75.50
2018-09-30T01:28:24.013Z,74.76
2018-09-30T01:29:02.007Z,74.54
2018-09-30T01:29:39.800Z,74.66
2018-09-30T01:30:18.311Z,74.45
2018-09-30T01:30:56.296Z,74.37
2018-09-30T01:31:34.171Z,73.85
2018-09-30T01:32:12.087Z,73.77
2018-09-30T01:32:50.945Z,73.88
2018-09-30T01:33:28.881Z,73.58
2018-09-30T01:34:06.793Z,73.47
2018-09-30T01:34:44.692Z,73.79
2018-09-30T01:35:22.715Z,73.07
2018-09-30T01:36:00.845Z,72.85
2018-09-30T01:36:39.018Z,72.57
2018-09-30T01:37:16.977Z,72.75
2018-09-30T01:37:54.887Z,72.55
2018-09-30T01:38:32.764Z,72.56
2018-09-30T01:39:11.668Z,72.67
2018-09-30T01:39:50.968Z,72.62
2018-09-30T01:40:28.929Z,72.40
2018-09-30T01:41:08.008Z,72.35
2018-09-30T01:41:48.138Z,72.30
2018-09-30T01:42:26.060Z,71.80
2018-09-30T01:43:03.901Z,71.54
2018-09-30T01:43:41.962Z,71.44
2018-09-30T01:44:19.786Z,71.32
2018-09-30T01:44:57.600Z,71.62
2018-09-30T01:45:35.471Z,71.58
2018-09-30T01:46:13.345Z,71.22
2018-09-30T01:46:51.182Z,71.19
2018-09-30T01:47:29.043Z,71.17
2018-09-30T01:48:07.072Z,71.49
2018-09-30T01:48:45.033Z,70.87
2018-09-30T01:49:23.765Z,70.90
2018-09-30T01:50:01.748Z,70.90
2018-09-30T01:50:39.665Z,70.65
2018-09-30T01:51:18.424Z,70.93
2018-09-30T01:52:05.070Z,70.85
2018-09-30T01:52:55.750Z,71.09
2018-09-30T01:53:33.709Z,70.92
2018-09-30T01:54:11.581Z,70.89
2018-09-30T01:54:49.682Z,70.94
2018-09-30T01:55:27.462Z,70.86
2018-09-30T01:56:05.362Z,71.06
2018-09-30T01:56:43.443Z,70.76
2018-09-30T01:57:22.630Z,71.13
2018-09-30T01:58:00.479Z,70.91
2018-09-30T01:58:38.394Z,71.75
2018-09-30T01:59:16.400Z,71.05
2018-09-30T01:59:54.206Z,71.10
2018-09-30T02:00:32.079Z,71.25
2018-09-30T02:01:09.973Z,70.81
2018-09-30T02:01:47.801Z,70.74
2018-09-30T02:02:25.750Z,70.41
2018-09-30T02:03:03.709Z,69.97
2018-09-30T02:03:41.445Z,69.70
2018-09-30T02:04:19.315Z,69.43
2018-09-30T02:04:58.325Z,69.53
2018-09-30T02:05:36.161Z,69.39
2018-09-30T02:06:13.986Z,69.49
2018-09-30T02:06:52.203Z,69.58
2018-09-30T02:07:30.122Z,69.74
2018-09-30T02:08:09.163Z,70.08
2018-09-30T02:08:48.001Z,69.88
2018-09-30T02:09:27.862Z,69.90
2018-09-30T02:10:05.732Z,70.12
2018-09-30T02:10:44.989Z,69.63
2018-09-30T02:11:23.010Z,70.13
2018-09-30T02:12:01.606Z,70.00
2018-09-30T02:12:39.602Z,70.05
2018-09-30T02:13:17.510Z,69.90
2018-09-30T02:13:55.445Z,70.04
2018-09-30T02:14:34.043Z,69.94
2018-09-30T02:15:12.093Z,70.17
2018-09-30T02:15:49.932Z,70.20
2018-09-30T02:16:29.912Z,70.19
2018-09-30T02:17:09.008Z,70.41
2018-09-30T02:17:47.058Z,70.15
2018-09-30T02:18:25.035Z,70.01
2018-09-30T02:19:02.955Z,69.94
2018-09-30T02:19:40.844Z,70.01
2018-09-30T02:20:18.641Z,69.62
2018-09-30T02:20:56.495Z,69.45
2018-09-30T02:21:34.461Z,69.03
2018-09-30T02:22:12.497Z,68.93
2018-09-30T02:22:50.308Z,68.76
2018-09-30T02:23:28.297Z,68.54
2018-09-30T02:24:06.923Z,68.33
2018-09-30T02:24:44.777Z,67.60
2018-09-30T02:25:22.625Z,67.52
2018-09-30T02:26:01.694Z,66.98
2018-09-30T02:26:39.469Z,67.18
2018-09-30T02:27:17.402Z,66.56
2018-09-30T02:27:55.224Z,66.57
2018-09-30T02:28:33.193Z,66.40
2018-09-30T02:29:11.236Z,66.25
2018-09-30T02:29:49.057Z,65.96
2018-09-30T02:30:27.021Z,65.58
2018-09-30T02:31:05.834Z,65.18
2018-09-30T02:31:43.702Z,65.01
2018-09-30T02:32:21.707Z,64.92
2018-09-30T02:32:59.681Z,64.78
2018-09-30T02:33:37.558Z,64.40
2018-09-30T02:34:15.421Z,64.40
2018-09-30T02:34:53.456Z,64.42
2018-09-30T02:35:31.533Z,64.46
2018-09-30T02:36:09.412Z,64.47
2018-09-30T02:36:47.331Z,65.04
2018-09-30T02:37:25.349Z,64.85
2018-09-30T02:38:18.368Z,65.05
2018-09-30T02:38:57.553Z,65.12
2018-09-30T02:39:36.556Z,64.37
2018-09-30T02:40:14.555Z,64.75
2018-09-30T02:40:52.437Z,64.66
2018-09-30T02:41:30.266Z,65.40
2018-09-30T02:42:08.126Z,64.77
2018-09-30T02:42:50.217Z,65.34
2018-09-30T02:43:28.011Z,64.71
2018-09-30T02:44:05.861Z,64.41
2018-09-30T02:44:44.242Z,63.73
2018-09-30T02:45:22.254Z,63.47
2018-09-30T02:46:00.339Z,63.93
2018-09-30T02:46:39.177Z,64.00
2018-09-30T02:47:17.674Z,63.06
2018-09-30T02:47:55.454Z,62.46
2018-09-30T02:48:33.280Z,63.18
2018-09-30T02:49:11.159Z,61.60
2018-09-30T02:49:52.283Z,61.49
2018-09-30T02:50:30.382Z,60.94
2018-09-30T02:51:08.362Z,61.32
2018-09-30T02:51:46.354Z,61.57
2018-09-30T02:52:24.164Z,60.57
2018-09-30T02:53:02.020Z,61.18
2018-09-30T02:53:40.208Z,60.99
2018-09-30T02:54:18.095Z,60.39
2018-09-30T02:54:55.937Z,61.05
2018-09-30T02:55:33.834Z,60.25
2018-09-30T02:56:11.868Z,60.19
2018-09-30T02:56:49.969Z,60.24
2018-09-30T02:57:27.825Z,60.62
2018-09-30T02:58:06.721Z,59.59
2018-09-30T02:58:44.570Z,59.18
2018-09-30T02:59:23.987Z,60.33
2018-09-30T03:00:02.396Z,60.35
2018-09-30T03:00:40.289Z,59.79
2018-09-30T03:01:19.439Z,61.05
2018-09-30T03:01:57.291Z,60.77
2018-09-30T03:02:35.516Z,60.71
2018-09-30T03:03:15.400Z,60.80
2018-09-30T03:03:53.505Z,61.15
2018-09-30T03:04:31.631Z,61.14
2018-09-30T03:05:09.670Z,60.52
2018-09-30T03:05:47.605Z,61.25
2018-09-30T03:06:29.502Z,61.46
2018-09-30T03:07:11.474Z,61.76
2018-09-30T03:07:53.554Z,61.89
2018-09-30T03:08:35.916Z,60.79
2018-09-30T03:09:18.828Z,61.47
2018-09-30T03:09:56.596Z,62.12
2018-09-30T03:10:34.758Z,61.81
2018-09-30T03:11:12.846Z,61.89
2018-09-30T03:11:50.825Z,61.47
2018-09-30T03:12:28.682Z,60.84
2018-09-30T03:13:06.973Z,61.86
2018-09-30T03:13:44.854Z,60.51
2018-09-30T03:14:22.795Z,61.28
2018-09-30T03:15:00.713Z,60.12
2018-09-30T03:15:38.586Z,60.08
2018-09-30T03:16:17.708Z,61.15
2018-09-30T03:16:55.561Z,60.36
2018-09-30T03:17:33.545Z,59.32
2018-09-30T03:18:11.482Z,59.24
2018-09-30T03:18:49.389Z,59.73
2018-09-30T03:19:27.256Z,59.55
2018-09-30T03:20:05.283Z,59.48
2018-09-30T03:20:44.471Z,59.29
2018-09-30T03:21:22.577Z,58.81
2018-09-30T03:22:00.478Z,59.65
2018-09-30T03:22:39.303Z,59.73
2018-09-30T03:23:17.206Z,59.13
2018-09-30T03:23:55.636Z,58.77
2018-09-30T03:24:33.732Z,60.25
2018-09-30T03:25:11.877Z,60.14
2018-09-30T03:25:49.974Z,60.00
2018-09-30T03:26:27.934Z,59.79
2018-09-30T03:27:06.078Z,60.01
2018-09-30T03:27:44.774Z,59.57
2018-09-30T03:28:22.766Z,60.26
2018-09-30T03:29:00.781Z,59.21
2018-09-30T03:29:38.872Z,59.58
2018-09-30T03:30:18.116Z,59.92
2018-09-30T03:30:57.010Z,59.92
2018-09-30T03:31:34.906Z,58.58
2018-09-30T03:32:12.734Z,59.09
2018-09-30T03:32:50.613Z,58.54
2018-09-30T03:33:28.597Z,59.38
2018-09-30T03:34:06.537Z,60.07
2018-09-30T03:34:44.408Z,58.99
2018-09-30T03:35:22.297Z,59.14
2018-09-30T03:36:00.115Z,58.84
2018-09-30T03:36:37.970Z,58.21
2018-09-30T03:37:16.817Z,58.74
2018-09-30T03:38:08.603Z,58.28
2018-09-30T03:38:46.440Z,58.85
2018-09-30T03:39:25.585Z,59.03
2018-09-30T03:40:03.557Z,59.62
2018-09-30T03:40:41.459Z,59.64
2018-09-30T03:41:19.351Z,59.55
2018-09-30T03:41:57.208Z,58.71
2018-09-30T03:42:35.199Z,59.38
2018-09-30T03:43:14.275Z,58.68
2018-09-30T03:43:52.354Z,58.36
2018-09-30T03:44:30.286Z,58.29
2018-09-30T03:45:08.417Z,57.89
2018-09-30T03:45:47.199Z,57.95
2018-09-30T03:46:25.223Z,58.13
2018-09-30T03:47:03.092Z,58.32
2018-09-30T03:47:41.010Z,58.16
2018-09-30T03:48:18.980Z,58.14
2018-09-30T03:48:56.995Z,58.36
2018-09-30T03:49:34.969Z,58.19
2018-09-30T03:50:14.263Z,57.85
2018-09-30T03:50:52.205Z,57.50
2018-09-30T03:51:30.006Z,58.21
2018-09-30T03:52:08.277Z,57.96
2018-09-30T03:52:47.467Z,57.73
2018-09-30T03:53:25.595Z,57.58
2018-09-30T03:54:03.570Z,57.00
2018-09-30T03:54:41.646Z,56.42
2018-09-30T03:55:19.599Z,56.52
2018-09-30T03:55:57.720Z,56.02
2018-09-30T03:56:35.704Z,56.07
2018-09-30T03:57:13.662Z,56.11
2018-09-30T03:57:51.686Z,56.87
2018-09-30T03:58:29.514Z,56.01
2018-09-30T03:59:07.390Z,55.44
2018-09-30T03:59:45.179Z,55.61
2018-09-30T04:00:22.996Z,55.48
2018-09-30T04:01:00.961Z,54.64
2018-09-30T04:01:39.058Z,55.79
2018-09-30T04:02:17.084Z,54.90
2018-09-30T04:02:54.977Z,55.67
2018-09-30T04:03:32.984Z,54.84
2018-09-30T04:04:10.909Z,54.41
2018-09-30T04:04:50.376Z,54.51
2018-09-30T04:05:28.243Z,54.78
2018-09-30T04:06:06.128Z,54.16
2018-09-30T04:06:44.952Z,54.21
2018-09-30T04:07:22.955Z,54.30
2018-09-30T04:08:01.142Z,53.97
2018-09-30T04:08:39.083Z,53.73
2018-09-30T04:09:17.200Z,54.39
2018-09-30T04:09:55.105Z,54.42
2018-09-30T04:10:33.208Z,54.52
2018-09-30T04:11:11.137Z,53.63
2018-09-30T04:11:49.050Z,54.65
2018-09-30T04:12:27.287Z,53.95
2018-09-30T04:13:05.169Z,54.76
2018-09-30T04:13:44.562Z,54.38
2018-09-30T04:14:22.920Z,55.02
2018-09-30T04:15:00.709Z,54.07
2018-09-30T04:15:38.766Z,54.43
2018-09-30T04:16:17.638Z,55.05
2018-09-30T04:16:55.581Z,54.44
2018-09-30T04:17:33.504Z,54.34
2018-09-30T04:18:12.946Z,54.81
2018-09-30T04:18:50.734Z,54.07
2018-09-30T04:19:28.548Z,54.01
2018-09-30T04:20:06.606Z,53.97
2018-09-30T04:20:44.668Z,55.02
2018-09-30T04:21:22.940Z,54.49
2018-09-30T04:22:00.889Z,54.36
2018-09-30T04:22:38.779Z,54.31
2018-09-30T04:23:16.629Z,54.39
2018-09-30T04:24:01.641Z,55.04
2018-09-30T04:24:39.453Z,54.46
2018-09-30T04:25:18.659Z,54.13
2018-09-30T04:25:56.777Z,53.95
2018-09-30T04:26:34.666Z,52.89
2018-09-30T04:27:14.141Z,53.08
2018-09-30T04:27:52.185Z,53.89
2018-09-30T04:28:30.063Z,52.58
2018-09-30T04:29:08.193Z,52.67
2018-09-30T04:29:46.028Z,53.81
2018-09-30T04:30:23.903Z,53.49
2018-09-30T04:31:01.886Z,52.84
2018-09-30T04:31:39.744Z,51.69
2018-09-30T04:32:17.628Z,51.22
2018-09-30T04:32:55.528Z,51.43
2018-09-30T04:33:33.410Z,52.49
2018-09-30T04:34:11.363Z,51.81
2018-09-30T04:34:49.136Z,53.02
2018-09-30T04:35:27.627Z,53.26
2018-09-30T04:36:05.477Z,52.60
2018-09-30T04:36:43.290Z,52.60
2018-09-30T04:37:21.195Z,52.74
2018-09-30T04:37:59.085Z,52.46
2018-09-30T04:38:36.961Z,53.31
2018-09-30T04:39:15.749Z,52.29
2018-09-30T04:39:53.615Z,53.03
2018-09-30T04:40:31.729Z,51.99
2018-09-30T04:41:09.940Z,52.29
2018-09-30T04:41:47.789Z,52.35
2018-09-30T04:42:26.851Z,51.22
2018-09-30T04:43:05.775Z,51.44
2018-09-30T04:43:43.728Z,51.00
2018-09-30T04:44:23.055Z,50.91
2018-09-30T04:45:01.042Z,50.57
2018-09-30T04:45:39.852Z,50.91
2018-09-30T04:46:17.649Z,51.83
2018-09-30T04:46:55.762Z,51.45
2018-09-30T04:47:34.778Z,51.08
2018-09-30T04:48:12.769Z,51.05
2018-09-30T04:48:50.706Z,51.88
2018-09-30T04:49:28.809Z,51.93
2018-09-30T04:50:06.696Z,52.13
2018-09-30T04:50:44.818Z,51.46
2018-09-30T04:51:22.645Z,52.43
2018-09-30T04:52:00.509Z,52.00
2018-09-30T04:52:38.393Z,52.56
2018-09-30T04:53:16.464Z,52.47
2018-09-30T04:53:54.435Z,51.87
2018-09-30T04:54:32.452Z,51.59
2018-09-30T04:55:10.327Z,50.75
2018-09-30T04:55:48.178Z,51.17
2018-09-30T04:56:25.997Z,51.04
2018-09-30T04:57:04.013Z,50.22
2018-09-30T04:57:41.905Z,50.96
2018-09-30T04:58:19.800Z,50.51
2018-09-30T04:58:59.049Z,50.58
2018-09-30T04:59:37.088Z,50.14
2018-09-30T05:00:14.998Z,50.56
2018-09-30T05:00:52.771Z,50.04
2018-09-30T05:01:30.637Z,49.50
2018-09-30T05:02:08.569Z,51.15
2018-09-30T05:02:46.827Z,51.14
2018-09-30T05:03:24.819Z,51.19
2018-09-30T05:04:02.706Z,50.73
2018-09-30T05:04:41.155Z,51.23
2018-09-30T05:05:19.953Z,50.61
2018-09-30T05:05:58.807Z,50.55
2018-09-30T05:06:36.848Z,50.67
2018-09-30T05:07:14.727Z,50.18
2018-09-30T05:07:52.515Z,49.71
2018-09-30T05:08:30.908Z,50.13
2018-09-30T05:09:10.662Z,49.77
2018-09-30T05:09:49.940Z,50.69
2018-09-30T05:10:28.719Z,49.65
2018-09-30T05:11:07.727Z,49.30
2018-09-30T05:11:45.627Z,49.37
2018-09-30T05:12:23.474Z,49.28
2018-09-30T05:13:01.280Z,49.42
2018-09-30T05:13:39.124Z,49.51
2018-09-30T05:14:17.138Z,48.90
2018-09-30T05:14:55.104Z,48.74
2018-09-30T05:15:33.898Z,49.52
2018-09-30T05:16:11.916Z,49.24
2018-09-30T05:16:49.792Z,48.62
2018-09-30T05:17:27.632Z,49.25
2018-09-30T05:18:05.904Z,48.32
2018-09-30T05:18:44.787Z,47.20
2018-09-30T05:19:22.564Z,47.42
2018-09-30T05:20:00.580Z,48.16
2018-09-30T05:20:38.571Z,48.46
2018-09-30T05:21:16.429Z,48.72
2018-09-30T05:21:54.227Z,48.80
2018-09-30T05:22:32.094Z,48.06
2018-09-30T05:23:10.112Z,49.15
2018-09-30T05:23:47.946Z,48.35
2018-09-30T05:24:25.882Z,48.96
2018-09-30T05:25:03.792Z,49.24
2018-09-30T05:25:41.756Z,49.13
2018-09-30T05:26:19.780Z,49.31
2018-09-30T05:26:57.680Z,49.41
2018-09-30T05:27:35.600Z,48.54
2018-09-30T05:28:13.410Z,48.61
2018-09-30T05:28:51.341Z,49.39
2018-09-30T05:29:29.236Z,48.40
2018-09-30T05:30:07.957Z,48.61
2018-09-30T05:30:45.758Z,48.28
2018-09-30T05:31:24.501Z,47.72
2018-09-30T05:32:02.379Z,48.17
2018-09-30T05:32:40.480Z,48.32
2018-09-30T05:33:18.448Z,47.47
2018-09-30T05:33:56.505Z,47.28
2018-09-30T05:34:34.750Z,47.19
2018-09-30T05:35:12.613Z,47.89
2018-09-30T05:35:50.799Z,48.18
2018-09-30T05:36:28.733Z,48.56
2018-09-30T05:37:06.645Z,48.13
2018-09-30T05:37:44.630Z,48.87
2018-09-30T05:38:22.536Z,48.38
2018-09-30T05:39:00.483Z,47.72
2018-09-30T05:39:38.425Z,48.08
2018-09-30T05:40:17.084Z,46.66
2018-09-30T05:40:54.960Z,47.03
2018-09-30T05:41:32.756Z,47.08
2018-09-30T05:42:11.009Z,47.42
2018-09-30T05:42:48.849Z,47.20
2018-09-30T05:43:26.971Z,47.84
2018-09-30T05:44:06.755Z,47.97
2018-09-30T05:44:44.759Z,47.81
2018-09-30T05:45:22.822Z,48.14
2018-09-30T05:46:01.772Z,47.28
2018-09-30T05:46:40.131Z,47.09
2018-09-30T05:47:17.972Z,48.41
2018-09-30T05:47:55.874Z,48.60
2018-09-30T05:48:34.691Z,48.52
2018-09-30T05:49:12.700Z,48.62
2018-09-30T05:49:50.692Z,49.72
2018-09-30T05:50:28.518Z,48.85
2018-09-30T05:51:06.424Z,49.08
2018-09-30T05:51:44.311Z,49.61
2018-09-30T05:52:22.603Z,49.28
2018-09-30T05:53:00.482Z,49.41
2018-09-30T05:53:38.401Z,50.23
2018-09-30T05:54:16.901Z,50.43
2018-09-30T05:54:55.677Z,49.81
2018-09-30T05:55:33.790Z,49.21
2018-09-30T05:56:11.675Z,49.43
2018-09-30T05:56:49.671Z,49.65
2018-09-30T05:57:27.668Z,49.09
2018-09-30T05:58:05.591Z,49.09
2018-09-30T05:58:44.386Z,49.63
2018-09-30T05:59:23.147Z,48.90
2018-09-30T06:00:00.970Z,48.61
2018-09-30T06:00:39.984Z,48.44
2018-09-30T06:01:17.968Z,48.44
2018-09-30T06:01:55.754Z,48.36
2018-09-30T06:02:34.668Z,47.76
2018-09-30T06:03:12.441Z,46.85
2018-09-30T06:03:50.489Z,46.27
2018-09-30T06:04:28.638Z,47.08
2018-09-30T06:05:06.437Z,47.06
2018-09-30T06:05:44.546Z,46.26
2018-09-30T06:06:22.916Z,47.04
2018-09-30T06:07:00.746Z,45.30
2018-09-30T06:07:38.672Z,45.17
2018-09-30T06:08:17.279Z,45.07
2018-09-30T06:08:55.176Z,45.87
2018-09-30T06:09:33.182Z,45.44
2018-09-30T06:10:12.285Z,46.58
2018-09-30T06:10:50.214Z,46.65
2018-09-30T06:11:28.046Z,46.99
2018-09-30T06:12:06.952Z,46.82
2018-09-30T06:12:44.791Z,47.15
2018-09-30T06:13:22.757Z,46.58
2018-09-30T06:14:00.732Z,46.67
2018-09-30T06:14:38.654Z,45.54
2018-09-30T06:15:16.662Z,45.54
2018-09-30T06:15:54.772Z,45.04
2018-09-30T06:16:33.503Z,44.59
2018-09-30T06:17:11.313Z,45.25
2018-09-30T06:17:49.190Z,44.74
2018-09-30T06:18:27.070Z,45.69
2018-09-30T06:19:04.972Z,45.59
2018-09-30T06:19:43.747Z,45.97
2018-09-30T06:20:21.818Z,45.96
2018-09-30T06:21:00.041Z,45.31
2018-09-30T06:21:38.070Z,45.56
2018-09-30T06:22:16.633Z,45.86
2018-09-30T06:22:54.665Z,45.36
2018-09-30T06:23:32.844Z,45.14
2018-09-30T06:24:13.758Z,45.77
2018-09-30T06:24:51.768Z,45.38
2018-09-30T06:25:29.723Z,46.19
2018-09-30T06:26:08.345Z,46.29
2018-09-30T06:26:47.124Z,45.70
2018-09-30T06:27:28.300Z,46.36
2018-09-30T06:28:15.597Z,46.41
2018-09-30T06:28:53.761Z,46.47
2018-09-30T06:29:31.638Z,45.82
2018-09-30T06:30:09.758Z,45.78
2018-09-30T06:30:47.623Z,46.40
2018-09-30T06:31:26.496Z,46.04
2018-09-30T06:32:04.376Z,45.67
2018-09-30T06:32:42.265Z,46.57
2018-09-30T06:33:20.186Z,46.63
2018-09-30T06:33:58.311Z,46.50
2018-09-30T06:34:36.416Z,45.73
2018-09-30T06:35:14.841Z,46.48
2018-09-30T06:35:52.721Z,46.56
2018-09-30T06:36:30.683Z,45.89
2018-09-30T06:37:08.625Z,46.89
2018-09-30T06:37:46.469Z,46.36
2018-09-30T06:38:24.530Z,46.64
2018-09-30T06:39:02.325Z,46.72
2018-09-30T06:39:40.401Z,45.42
2018-09-30T06:40:18.236Z,45.50
2018-09-30T06:40:56.290Z,45.36
2018-09-30T06:41:34.174Z,46.23
2018-09-30T06:42:12.033Z,46.39
2018-09-30T06:42:49.861Z,46.28
2018-09-30T06:43:27.684Z,46.53
2018-09-30T06:44:05.641Z,46.35
2018-09-30T06:44:43.758Z,45.92
2018-09-30T06:45:21.681Z,46.41
2018-09-30T06:45:59.501Z,46.05
2018-09-30T06:46:37.397Z,45.77
2018-09-30T06:47:15.226Z,45.74
2018-09-30T06:47:53.271Z,45.56
2018-09-30T06:48:31.108Z,45.58
2018-09-30T06:49:08.997Z,45.85
2018-09-30T06:49:46.858Z,45.64
2018-09-30T06:50:24.832Z,45.90
2018-09-30T06:51:02.886Z,45.13
2018-09-30T06:51:40.919Z,46.05
2018-09-30T06:52:19.582Z,45.95
2018-09-30T06:52:57.360Z,46.28
2018-09-30T06:53:35.218Z,46.27
2018-09-30T06:54:14.097Z,45.85
2018-09-30T06:54:52.061Z,45.84
2018-09-30T06:55:30.158Z,46.24
2018-09-30T06:56:08.032Z,45.40
2018-09-30T06:56:46.108Z,45.87
2018-09-30T06:57:24.194Z,45.62
2018-09-30T06:58:02.188Z,44.96
2018-09-30T06:58:40.034Z,45.35
2018-09-30T06:59:18.120Z,45.89
2018-09-30T06:59:55.933Z,45.23
2018-09-30T07:00:33.821Z,44.75
2018-09-30T07:01:11.863Z,44.15
2018-09-30T07:01:49.692Z,43.96
2018-09-30T07:02:27.686Z,44.74
2018-09-30T07:03:05.795Z,44.94
2018-09-30T07:03:43.634Z,44.15
2018-09-30T07:04:21.473Z,43.71
2018-09-30T07:04:59.384Z,43.92
2018-09-30T07:05:39.048Z,43.06
2018-09-30T07:06:17.351Z,43.57
2018-09-30T07:06:55.243Z,43.42
2018-09-30T07:07:33.110Z,43.33
2018-09-30T07:08:11.578Z,43.25
2018-09-30T07:08:49.421Z,43.37
2018-09-30T07:09:27.265Z,43.24
2018-09-30T07:10:05.804Z,44.25
2018-09-30T07:10:43.686Z,44.32
2018-09-30T07:11:22.817Z,43.66
2018-09-30T07:12:00.775Z,43.92
2018-09-30T07:12:39.419Z,44.49
2018-09-30T07:13:17.350Z,44.62
2018-09-30T07:13:56.498Z,44.42
2018-09-30T07:14:34.554Z,45.23
2018-09-30T07:15:12.713Z,45.37
2018-09-30T07:15:50.605Z,45.08
2018-09-30T07:16:28.587Z,44.96
2018-09-30T07:17:06.477Z,44.85
2018-09-30T07:17:44.650Z,44.84
2018-09-30T07:18:22.624Z,44.75
2018-09-30T07:19:00.587Z,45.33
2018-09-30T07:19:38.407Z,45.45
2018-09-30T07:20:17.959Z,45.87
2018-09-30T07:20:55.909Z,46.67
2018-09-30T07:21:35.238Z,47.01
2018-09-30T07:22:13.104Z,46.34
2018-09-30T07:22:51.349Z,47.32
2018-09-30T07:23:29.206Z,47.58
2018-09-30T07:24:07.028Z,47.37
2018-09-30T07:24:45.018Z,48.14
2018-09-30T07:25:23.004Z,47.75
2018-09-30T07:26:00.994Z,48.18
2018-09-30T07:26:38.912Z,47.67
2018-09-30T07:27:17.050Z,48.17
2018-09-30T07:27:54.875Z,47.33
2018-09-30T07:28:32.824Z,48.01
2018-09-30T07:29:11.018Z,47.75
2018-09-30T07:29:49.073Z,48.05
2018-09-30T07:30:27.889Z,47.66
2018-09-30T07:31:05.892Z,47.89
2018-09-30T07:31:43.660Z,47.98
2018-09-30T07:32:21.654Z,48.65
2018-09-30T07:33:02.899Z,47.78
2018-09-30T07:33:41.267Z,48.19
2018-09-30T07:34:19.136Z,48.23
2018-09-30T07:34:57.867Z,48.19
2018-09-30T07:35:35.709Z,48.42
2018-09-30T07:36:13.723Z,48.60
2018-09-30T07:36:51.580Z,48.67
2018-09-30T07:37:29.439Z,49.64
2018-09-30T07:38:07.215Z,49.84
2018-09-30T07:38:45.165Z,50.06
2018-09-30T07:39:23.070Z,50.73
2018-09-30T07:40:01.160Z,50.34
2018-09-30T07:40:38.978Z,50.51
2018-09-30T07:41:16.811Z,50.85
2018-09-30T07:41:55.467Z,50.01
2018-09-30T07:42:33.394Z,50.72
2018-09-30T07:43:11.187Z,50.62
2018-09-30T07:43:49.022Z,50.04
2018-09-30T07:44:26.876Z,50.79
2018-09-30T07:45:04.812Z,50.80
2018-09-30T07:45:42.666Z,50.25
2018-09-30T07:46:20.589Z,50.37
2018-09-30T07:46:58.430Z,50.37
2018-09-30T07:47:36.363Z,50.17
2018-09-30T07:48:14.440Z,50.71
2018-09-30T07:48:53.454Z,50.22
2018-09-30T07:49:32.756Z,50.04
2018-09-30T07:50:10.694Z,50.95
2018-09-30T07:50:48.569Z,50.71
2018-09-30T07:51:26.467Z,50.68
2018-09-30T07:52:04.289Z,50.75
2018-09-30T07:52:43.618Z,50.29
2018-09-30T07:53:23.037Z,50.11
2018-09-30T07:54:00.897Z,50.43
2018-09-30T07:54:39.266Z,50.88
2018-09-30T07:55:17.147Z,50.78
2018-09-30T07:55:55.266Z,52.03
2018-09-30T07:56:33.289Z,51.32
2018-09-30T07:57:11.196Z,52.44
2018-09-30T07:57:50.183Z,51.76
2018-09-30T07:58:28.083Z,51.77
2018-09-30T07:59:06.036Z,51.99
2018-09-30T07:59:43.819Z,51.36
2018-09-30T08:00:22.451Z,52.53
2018-09-30T08:01:01.359Z,51.12
2018-09-30T08:01:39.186Z,51.21
2018-09-30T08:02:18.144Z,51.97
2018-09-30T08:02:56.011Z,51.03
2018-09-30T08:03:33.919Z,51.97
2018-09-30T08:04:11.823Z,51.85
2018-09-30T08:04:49.657Z,51.92
2018-09-30T08:05:27.563Z,52.19
2018-09-30T08:06:06.106Z,52.20
2018-09-30T08:06:45.048Z,52.04
2018-09-30T08:07:23.001Z,51.05
2018-09-30T08:08:03.121Z,52.54
2018-09-30T08:08:42.897Z,52.36
2018-09-30T08:09:22.713Z,52.62
2018-09-30T08:10:01.126Z,52.59
2018-09-30T08:10:38.963Z,52.91
2018-09-30T08:11:16.848Z,52.69
2018-09-30T08:11:54.661Z,51.47
2018-09-30T08:12:32.775Z,52.07
2018-09-30T08:13:10.740Z,51.14
2018-09-30T08:13:48.546Z,52.30
2018-09-30T08:14:26.482Z,52.69
2018-09-30T08:15:04.809Z,52.25
2018-09-30T08:15:42.757Z,52.13